createdAt,value
2018-10-07T00:00:31.340Z,14.43
2018-10-07T00:03:00.237Z,11.77
2018-10-07T00:05:29.119Z,14.13
2018-10-07T00:07:57.942Z,11.93
2018-10-07T00:10:26.889Z,11.17
2018-10-07T00:12:55.760Z,10.23
2018-10-07T00:15:24.668Z,10.07
2018-10-07T00:17:53.812Z,12.30
2018-10-07T00:20:22.651Z,12.93
2018-10-07T00:22:51.583Z,14.73
2018-10-07T00:25:20.418Z,10.80
2018-10-07T00:27:49.350Z,13.30
2018-10-07T00:30:18.334Z,15.03
2018-10-07T00:32:47.714Z,15.53
2018-10-07T00:35:16.560Z,17.40
2018-10-07T00:37:45.495Z,15.30
2018-10-07T00:40:14.648Z,17.73
2018-10-07T00:42:43.457Z,14.97
2018-10-07T00:45:12.415Z,21.10
2018-10-07T00:47:41.241Z,20.60
2018-10-07T00:50:10.069Z,19.27
2018-10-07T00:52:39.021Z,16.90
2018-10-07T00:55:08.357Z,21.10
2018-10-07T00:57:37.226Z,17.53
2018-10-07T01:00:07.276Z,19.30
2018-10-07T01:02:36.444Z,19.57
2018-10-07T01:05:05.270Z,21.53
2018-10-07T01:07:34.157Z,21.90
2018-10-07T01:10:03.320Z,21.83
2018-10-07T01:12:32.216Z,23.80
2018-10-07T01:16:30.237Z,26.63
2018-10-07T01:18:58.985Z,24.90
2018-10-07T01:21:27.918Z,23.47
2018-10-07T01:23:56.940Z,25.00
2018-10-07T01:26:25.932Z,27.40
2018-10-07T01:28:54.818Z,28.43
2018-10-07T01:31:23.912Z,25.97
2018-10-07T01:33:52.749Z,27.17
2018-10-07T01:36:22.001Z,23.13
2018-10-07T01:38:51.261Z,29.17
2018-10-07T01:41:20.101Z,25.43
2018-10-07T01:43:48.910Z,26.07
2018-10-07T01:46:18.240Z,29.40
2018-10-07T01:48:47.115Z,26.53
2018-10-07T01:51:16.007Z,27.03
2018-10-07T01:53:45.160Z,27.23
2018-10-07T01:56:13.945Z,29.93
2018-10-07T01:58:42.856Z,27.67
2018-10-07T02:01:11.993Z,34.30
2018-10-07T02:03:40.897Z,39.03
2018-10-07T02:06:09.766Z,41.93
2018-10-07T02:08:38.936Z,38.03
2018-10-07T02:11:08.211Z,34.23
2018-10-07T02:13:36.976Z,37.27
2018-10-07T02:16:06.145Z,37.23
2018-10-07T02:18:35.044Z,38.10
2018-10-07T02:21:03.867Z,35.80
2018-10-07T02:23:32.772Z,40.27
2018-10-07T02:26:01.662Z,34.10
2018-10-07T02:28:30.503Z,35.33
2018-10-07T02:30:59.461Z,40.70
2018-10-07T02:33:28.296Z,36.63
2018-10-07T02:35:57.149Z,35.37
2018-10-07T02:38:26.173Z,36.37
2018-10-07T02:40:55.189Z,37.60
2018-10-07T02:43:24.020Z,36.37
2018-10-07T02:45:52.975Z,34.97
2018-10-07T02:48:21.772Z,33.83
2018-10-07T02:50:50.713Z,36.47
2018-10-07T02:53:19.967Z,33.53
2018-10-07T02:55:49.108Z,34.50
2018-10-07T02:58:18.119Z,38.30
2018-10-07T03:00:47.173Z,35.57
2018-10-07T03:03:16.001Z,31.80
2018-10-07T03:05:44.873Z,40.43
2018-10-07T03:08:14.028Z,43.50
2018-10-07T03:10:42.832Z,35.73
2018-10-07T03:13:11.729Z,36.63
2018-10-07T03:15:40.628Z,38.57
2018-10-07T03:18:09.481Z,40.80
2018-10-07T03:20:38.437Z,37.60
2018-10-07T03:23:07.416Z,44.50
2018-10-07T03:25:36.506Z,41.50
2018-10-07T03:28:05.587Z,43.27
2018-10-07T03:30:34.813Z,42.27
2018-10-07T03:33:03.716Z,44.10
2018-10-07T03:35:32.524Z,43.20
2018-10-07T03:38:01.472Z,42.50
2018-10-07T03:40:30.308Z,45.37
2018-10-07T03:42:59.226Z,40.80
2018-10-07T03:45:28.074Z,43.23
2018-10-07T03:47:57.095Z,43.50
2018-10-07T03:50:26.030Z,44.53
2018-10-07T03:52:55.636Z,40.57
2018-10-07T03:55:24.507Z,39.27
2018-10-07T03:57:53.401Z,38.30
2018-10-07T04:00:22.389Z,41.43
2018-10-07T04:02:51.497Z,44.00
2018-10-07T04:05:20.502Z,42.23
2018-10-07T04:07:49.782Z,41.63
2018-10-07T04:10:18.800Z,41.97
2018-10-07T04:12:47.730Z,40.30
2018-10-07T04:15:16.763Z,41.00
2018-10-07T04:17:45.839Z,39.33
2018-10-07T04:20:14.992Z,37.07
2018-10-07T04:22:45.339Z,38.63
2018-10-07T04:25:14.365Z,39.30
2018-10-07T04:27:43.399Z,40.37
2018-10-07T04:30:12.392Z,41.63
2018-10-07T04:32:41.319Z,44.70
2018-10-07T04:35:10.365Z,45.77
2018-10-07T04:37:39.731Z,39.17
2018-10-07T04:40:08.694Z,44.13
2018-10-07T04:44:06.882Z,42.97
2018-10-07T04:46:35.872Z,45.63
2018-10-07T04:49:05.243Z,46.27
2018-10-07T04:51:34.516Z,41.57
2018-10-07T04:54:03.845Z,38.97
2018-10-07T04:56:33.174Z,43.83
2018-10-07T04:59:02.317Z,48.27
2018-10-07T05:01:31.622Z,47.10
2018-10-07T05:04:00.678Z,46.73
2018-10-07T05:06:33.415Z,40.97
2018-10-07T05:09:05.307Z,43.00
2018-10-07T05:11:34.770Z,42.67
2018-10-07T05:14:05.023Z,45.13
2018-10-07T05:16:40.503Z,37.17
2018-10-07T05:19:09.744Z,35.90
2018-10-07T05:21:38.843Z,35.67
2018-10-07T05:24:07.993Z,39.10
2018-10-07T05:26:37.097Z,30.87
2018-10-07T05:29:06.212Z,29.50
2018-10-07T05:31:35.504Z,30.17
2018-10-07T05:34:04.633Z,36.40
2018-10-07T05:36:33.797Z,32.27
2018-10-07T05:39:03.365Z,25.37
2018-10-07T05:41:32.465Z,31.77
2018-10-07T05:44:01.399Z,27.90
2018-10-07T05:46:30.332Z,30.20
2018-10-07T05:48:59.574Z,30.10
2018-10-07T05:51:28.615Z,22.80
2018-10-07T05:53:57.709Z,24.93
2018-10-07T05:56:26.805Z,23.63
2018-10-07T05:58:57.628Z,26.63
2018-10-07T06:01:41.128Z,27.23
2018-10-07T06:04:18.097Z,26.73
2018-10-07T06:06:47.480Z,25.73
2018-10-07T06:09:20.134Z,23.63
2018-10-07T06:11:49.230Z,28.77
2018-10-07T06:14:30.454Z,24.10
2018-10-07T06:16:59.857Z,24.93
2018-10-07T06:19:29.357Z,23.63
2018-10-07T06:21:58.817Z,24.90
2018-10-07T06:24:27.949Z,28.30
2018-10-07T06:26:56.991Z,21.23
2018-10-07T06:29:27.201Z,23.67
2018-10-07T06:31:56.406Z,20.27
2018-10-07T06:34:26.616Z,19.80
2018-10-07T06:36:55.773Z,20.63
2018-10-07T06:39:25.259Z,18.17
2018-10-07T06:41:54.245Z,19.20
2018-10-07T06:44:23.621Z,18.53
2018-10-07T06:46:52.787Z,18.47
2018-10-07T06:49:21.977Z,16.87
2018-10-07T06:51:51.416Z,20.00
2018-10-07T06:54:20.544Z,19.00
2018-10-07T06:56:50.240Z,19.40
2018-10-07T06:59:19.554Z,17.30
2018-10-07T07:01:48.741Z,18.27
2018-10-07T07:04:17.910Z,17.57
2018-10-07T07:06:46.965Z,16.73
2018-10-07T07:09:16.149Z,19.57
2018-10-07T07:11:45.113Z,15.77
2018-10-07T07:14:14.374Z,16.40
2018-10-07T07:16:43.531Z,17.17
2018-10-07T07:19:12.668Z,17.70
2018-10-07T07:21:41.865Z,18.70
2018-10-07T07:24:10.821Z,18.03
2018-10-07T07:26:39.994Z,17.83
2018-10-07T07:29:09.171Z,15.63
2018-10-07T07:31:38.098Z,19.43
2018-10-07T07:34:07.478Z,15.93
2018-10-07T07:36:37.789Z,19.67
2018-10-07T07:39:07.904Z,20.63
2018-10-07T07:41:37.082Z,14.87
2018-10-07T07:44:06.280Z,19.00
2018-10-07T07:46:35.274Z,16.03
2018-10-07T07:49:04.335Z,16.67
2018-10-07T07:51:33.412Z,15.73
2018-10-07T07:54:02.386Z,15.27
2018-10-07T07:56:31.629Z,16.50
2018-10-07T07:59:00.629Z,15.13
2018-10-07T08:01:29.851Z,13.37
2018-10-07T08:03:59.049Z,14.33
2018-10-07T08:06:28.418Z,14.93
2018-10-07T08:08:57.589Z,13.87
2018-10-07T08:11:27.948Z,15.60
2018-10-07T08:13:56.980Z,13.33
2018-10-07T08:16:26.251Z,12.33
2018-10-07T08:18:55.647Z,14.73
2018-10-07T08:21:24.722Z,15.17
2018-10-07T08:23:53.936Z,10.97
2018-10-07T08:26:22.906Z,12.93
2018-10-07T08:28:52.031Z,12.73
2018-10-07T08:31:21.114Z,10.97
2018-10-07T08:33:50.607Z,11.77
2018-10-07T08:36:19.610Z,13.23
2018-10-07T08:38:48.616Z,11.77
2018-10-07T08:41:17.737Z,11.90
2018-10-07T08:43:46.754Z,12.10
2018-10-07T08:46:15.848Z,11.47
2018-10-07T08:48:44.895Z,11.57
2018-10-07T08:51:14.066Z,8.23
2018-10-07T08:53:42.992Z,8.63
2018-10-07T08:56:12.296Z,9.10
2018-10-07T08:58:41.331Z,12.93
2018-10-07T09:01:10.402Z,8.60
2018-10-07T09:03:39.412Z,9.77
2018-10-07T09:06:08.521Z,12.00
2018-10-07T09:08:37.518Z,14.83
2018-10-07T09:11:06.628Z,10.30
2018-10-07T09:13:35.685Z,12.73
2018-10-07T09:16:05.165Z,8.80
2018-10-07T09:18:34.445Z,11.20
2018-10-07T09:21:03.750Z,10.20
2018-10-07T09:23:33.223Z,9.67
2018-10-07T09:26:02.712Z,17.60
2018-10-07T09:28:32.083Z,8.80
2018-10-07T09:31:01.052Z,8.47
2018-10-07T09:33:30.048Z,11.97
2018-10-07T09:35:59.158Z,11.03
2018-10-07T09:38:28.141Z,7.97
2018-10-07T09:40:57.342Z,7.10
2018-10-07T09:43:26.530Z,12.83
2018-10-07T09:45:55.701Z,12.40
2018-10-07T09:48:24.954Z,8.60
2018-10-07T09:50:54.107Z,9.43
2018-10-07T09:53:23.157Z,9.17
2018-10-07T09:55:52.331Z,7.73
2018-10-07T09:58:21.444Z,10.87
2018-10-07T10:00:50.448Z,10.40
2018-10-07T10:03:20.030Z,10.20
2018-10-07T10:05:48.987Z,10.60
2018-10-07T10:08:18.048Z,9.17
2018-10-07T10:10:47.090Z,8.77
2018-10-07T10:13:16.144Z,10.40
2018-10-07T10:15:45.324Z,7.07
2018-10-07T10:18:23.962Z,7.00
2018-10-07T10:21:01.490Z,10.33
2018-10-07T10:24:43.504Z,6.90
2018-10-07T10:27:38.053Z,12.07
2018-10-07T10:30:43.588Z,8.23
2018-10-07T10:33:26.384Z,7.53
2018-10-07T10:36:06.709Z,8.00
2018-10-07T10:38:50.743Z,7.67
2018-10-07T10:41:26.376Z,6.23
2018-10-07T10:43:58.929Z,8.07
2018-10-07T10:46:42.532Z,6.90
2018-10-07T10:49:20.435Z,6.70
2018-10-07T10:52:00.460Z,8.20
2018-10-07T10:54:40.160Z,10.27
2018-10-07T10:57:15.272Z,7.97
2018-10-07T11:00:05.757Z,13.03
2018-10-07T11:03:47.657Z,8.37
2018-10-07T11:06:21.844Z,11.20
2018-10-07T11:09:01.433Z,8.57
2018-10-07T11:11:42.390Z,9.00
2018-10-07T11:15:19.399Z,11.50
2018-10-07T11:20:03.404Z,10.80
2018-10-07T11:24:46.367Z,8.43
2018-10-07T11:27:53.453Z,13.03
2018-10-07T11:30:39.185Z,11.60
2018-10-07T11:34:12.061Z,7.40
2018-10-07T11:38:53.930Z,9.37
2018-10-07T11:43:33.363Z,9.80
2018-10-07T11:46:40.874Z,8.90
2018-10-07T11:49:13.304Z,7.40
2018-10-07T11:52:52.455Z,13.67
2018-10-07T11:55:21.304Z,16.83
2018-10-07T11:57:50.105Z,6.60
2018-10-07T12:00:19.497Z,7.57
2018-10-07T12:02:48.694Z,6.17
2018-10-07T12:05:17.473Z,9.40
2018-10-07T12:07:47.131Z,7.60
2018-10-07T12:10:16.094Z,10.40
2018-10-07T12:12:45.014Z,6.93
2018-10-07T12:15:14.236Z,10.80
2018-10-07T12:17:43.172Z,8.90
2018-10-07T12:20:12.392Z,9.83
2018-10-07T12:22:41.410Z,10.07
2018-10-07T12:25:10.403Z,10.20
2018-10-07T12:27:39.428Z,9.93
2018-10-07T12:30:08.754Z,7.50
2018-10-07T12:32:37.698Z,7.23
2018-10-07T12:35:06.615Z,8.57
2018-10-07T12:37:35.866Z,8.60
2018-10-07T12:40:04.883Z,8.97
2018-10-07T12:42:34.031Z,9.70
2018-10-07T12:45:03.402Z,9.40
2018-10-07T12:47:32.551Z,9.90
2018-10-07T12:50:01.600Z,10.37
2018-10-07T12:52:31.013Z,11.00
2018-10-07T12:54:59.987Z,10.57
2018-10-07T12:57:30.120Z,12.33
2018-10-07T12:59:59.709Z,12.50
2018-10-07T13:02:28.790Z,11.07
2018-10-07T13:04:57.808Z,8.87
2018-10-07T13:07:28.022Z,12.10
2018-10-07T13:09:56.969Z,10.97
2018-10-07T13:12:26.187Z,10.30
2018-10-07T13:14:55.220Z,11.97
2018-10-07T13:17:24.253Z,11.57
2018-10-07T13:19:53.434Z,8.47
2018-10-07T13:22:22.448Z,6.67
2018-10-07T13:24:51.635Z,6.23
2018-10-07T13:27:20.653Z,9.23
2018-10-07T13:29:49.653Z,10.40
2018-10-07T13:32:18.631Z,6.50
2018-10-07T13:34:47.657Z,6.73
2018-10-07T13:37:16.760Z,8.03
2018-10-07T13:39:45.581Z,6.30
2018-10-07T13:42:14.656Z,11.17
2018-10-07T13:44:44.216Z,11.93
2018-10-07T13:47:13.117Z,7.07
2018-10-07T13:49:42.353Z,10.03
2018-10-07T13:52:11.870Z,9.87
2018-10-07T13:54:40.915Z,9.80
2018-10-07T13:57:10.041Z,6.00
2018-10-07T13:59:39.117Z,7.20
2018-10-07T14:02:08.139Z,7.60
2018-10-07T14:04:37.213Z,7.33
2018-10-07T14:07:06.817Z,8.30
2018-10-07T14:09:35.912Z,7.23
2018-10-07T14:12:04.914Z,5.97
2018-10-07T14:14:34.002Z,13.70
2018-10-07T14:17:03.179Z,5.87
2018-10-07T14:19:32.384Z,5.07
2018-10-07T14:22:01.510Z,7.73
2018-10-07T14:24:30.609Z,8.00
2018-10-07T14:26:59.644Z,8.27
2018-10-07T14:29:28.842Z,5.77
2018-10-07T14:31:57.869Z,6.00
2018-10-07T14:34:27.063Z,14.97
2018-10-07T14:36:56.572Z,7.80
2018-10-07T14:39:25.539Z,7.40
2018-10-07T14:41:54.751Z,9.47
2018-10-07T14:44:24.267Z,10.07
2018-10-07T14:46:53.352Z,16.90
2018-10-07T14:49:22.393Z,6.33
2018-10-07T14:51:51.753Z,5.70
2018-10-07T14:54:20.748Z,7.27
2018-10-07T14:56:51.012Z,7.63
2018-10-07T14:59:20.524Z,10.17
2018-10-07T15:01:49.642Z,5.33
2018-10-07T15:04:18.898Z,6.57
2018-10-07T15:06:48.096Z,5.77
2018-10-07T15:09:17.165Z,8.20
2018-10-07T15:11:46.273Z,8.77
2018-10-07T15:14:15.273Z,11.07
2018-10-07T15:16:44.328Z,6.77
2018-10-07T15:19:13.316Z,7.60
2018-10-07T15:21:42.306Z,8.50
2018-10-07T15:24:11.251Z,8.70
2018-10-07T15:26:40.361Z,9.07
2018-10-07T15:29:10.180Z,9.83
2018-10-07T15:31:39.135Z,10.60
2018-10-07T15:34:08.278Z,9.10
2018-10-07T15:36:37.411Z,8.87
2018-10-07T15:39:07.732Z,9.23
2018-10-07T15:41:36.894Z,8.30
2018-10-07T15:44:06.117Z,8.83
2018-10-07T15:46:35.045Z,8.37
2018-10-07T15:49:03.922Z,15.20
2018-10-07T15:51:32.853Z,14.73
2018-10-07T15:54:01.840Z,13.43
2018-10-07T15:56:31.031Z,14.50
2018-10-07T15:59:00.332Z,11.30
2018-10-07T16:01:29.245Z,12.80
2018-10-07T16:03:58.173Z,13.83
2018-10-07T16:06:27.608Z,11.40
2018-10-07T16:08:56.660Z,12.23
2018-10-07T16:11:26.215Z,8.63
2018-10-07T16:13:55.326Z,9.83
2018-10-07T16:16:24.915Z,9.93
2018-10-07T16:18:53.968Z,18.10
2018-10-07T16:21:23.068Z,23.53
2018-10-07T16:23:52.337Z,24.33
2018-10-07T16:26:21.650Z,19.47
2018-10-07T16:28:50.461Z,26.30
2018-10-07T16:31:19.484Z,24.03
2018-10-07T16:33:48.889Z,25.77
2018-10-07T16:36:17.973Z,29.67
2018-10-07T16:38:46.959Z,27.33
2018-10-07T16:41:16.134Z,29.30
2018-10-07T16:43:45.192Z,36.73
2018-10-07T16:46:14.142Z,25.33
2018-10-07T16:48:43.342Z,28.27
2018-10-07T16:51:12.515Z,27.13
2018-10-07T16:53:41.439Z,25.33
2018-10-07T16:56:11.769Z,27.60
2018-10-07T16:58:40.801Z,35.47
2018-10-07T17:01:09.865Z,28.03
2018-10-07T17:03:39.585Z,27.13
2018-10-07T17:06:09.509Z,29.10
2018-10-07T17:08:38.371Z,29.93
2018-10-07T17:11:08.084Z,32.40
2018-10-07T17:13:37.475Z,22.30
2018-10-07T17:16:06.536Z,26.47
2018-10-07T17:18:35.582Z,28.40
2018-10-07T17:21:04.782Z,34.17
2018-10-07T17:23:33.966Z,41.13
2018-10-07T17:26:03.237Z,38.17
2018-10-07T17:28:32.249Z,42.97
2018-10-07T17:31:01.462Z,44.67
2018-10-07T17:33:30.566Z,37.10
2018-10-07T17:35:59.473Z,33.57
2018-10-07T17:38:28.388Z,35.70
2018-10-07T17:40:57.849Z,30.87
2018-10-07T17:43:26.768Z,33.60
2018-10-07T17:45:55.819Z,32.77
2018-10-07T17:48:25.416Z,29.43
2018-10-07T17:50:54.647Z,24.00
2018-10-07T17:53:23.984Z,22.20
2018-10-07T17:55:53.228Z,27.47
2018-10-07T17:58:22.165Z,28.57
2018-10-07T18:00:51.173Z,24.40
2018-10-07T18:03:20.294Z,26.37
2018-10-07T18:05:49.251Z,21.80
2018-10-07T18:08:18.339Z,19.50
2018-10-07T18:10:47.393Z,19.73
2018-10-07T18:13:16.851Z,18.80
2018-10-07T18:15:45.882Z,23.77
2018-10-07T18:18:14.931Z,18.30
2018-10-07T18:20:44.333Z,18.13
2018-10-07T18:23:13.472Z,17.13
2018-10-07T18:25:42.804Z,16.37
2018-10-07T18:28:11.841Z,21.53
2018-10-07T18:30:40.731Z,21.67
2018-10-07T18:33:10.124Z,18.57
2018-10-07T18:35:39.100Z,22.63
2018-10-07T18:38:08.245Z,19.10
2018-10-07T18:40:37.297Z,24.53
2018-10-07T18:43:06.375Z,15.60
2018-10-07T18:45:35.273Z,16.50
2018-10-07T18:48:04.360Z,12.43
2018-10-07T18:50:33.624Z,20.77
2018-10-07T18:53:02.856Z,14.10
2018-10-07T18:55:31.853Z,15.83
2018-10-07T18:58:01.325Z,11.97
2018-10-07T19:00:30.439Z,12.43
2018-10-07T19:02:59.964Z,12.43
2018-10-07T19:05:29.004Z,18.77
2018-10-07T19:07:58.041Z,15.40
2018-10-07T19:10:27.368Z,13.93
2018-10-07T19:12:56.432Z,11.70
2018-10-07T19:15:25.387Z,15.20
2018-10-07T19:17:54.895Z,13.23
2018-10-07T19:20:24.129Z,13.30
2018-10-07T19:22:53.352Z,13.17
2018-10-07T19:25:22.827Z,12.17
2018-10-07T19:27:51.832Z,15.53
2018-10-07T19:30:20.788Z,18.97
2018-10-07T19:32:50.392Z,22.23
2018-10-07T19:35:19.249Z,22.90
2018-10-07T19:37:48.188Z,22.30
2018-10-07T19:40:17.213Z,23.17
2018-10-07T19:42:46.298Z,25.70
2018-10-07T19:45:15.376Z,23.03
2018-10-07T19:47:44.475Z,23.63
2018-10-07T19:50:13.432Z,24.50
2018-10-07T19:52:42.449Z,23.27
2018-10-07T19:55:11.573Z,23.77
2018-10-07T19:57:40.575Z,26.70
2018-10-07T20:00:09.814Z,27.20
2018-10-07T20:02:38.880Z,25.20
2018-10-07T20:05:07.802Z,25.73
2018-10-07T20:07:36.946Z,32.10
2018-10-07T20:10:06.190Z,27.07
2018-10-07T20:12:35.217Z,29.00
2018-10-07T20:15:04.745Z,25.80
2018-10-07T20:17:34.011Z,31.77
2018-10-07T20:20:02.947Z,29.93
2018-10-07T20:22:31.955Z,29.23
2018-10-07T20:25:01.116Z,27.43
2018-10-07T20:27:30.139Z,24.93
2018-10-07T20:29:59.198Z,22.77
2018-10-07T20:32:28.645Z,23.27
2018-10-07T20:34:57.534Z,24.87
2018-10-07T20:37:26.667Z,25.50
2018-10-07T20:39:55.992Z,25.63
2018-10-07T20:42:25.195Z,26.20
2018-10-07T20:44:54.204Z,25.97
2018-10-07T20:47:23.439Z,22.10
2018-10-07T20:49:52.600Z,23.30
2018-10-07T20:52:21.593Z,19.30
2018-10-07T20:54:50.657Z,26.63
2018-10-07T20:57:19.599Z,23.37
2018-10-07T20:59:48.456Z,28.37
2018-10-07T21:02:17.602Z,25.67
2018-10-07T21:04:46.868Z,18.20
2018-10-07T21:07:15.942Z,21.00
2018-10-07T21:09:45.323Z,21.50
2018-10-07T21:12:14.389Z,20.33
2018-10-07T21:14:43.570Z,19.87
2018-10-07T21:17:12.941Z,20.47
2018-10-07T21:19:42.039Z,18.20
2018-10-07T21:22:11.000Z,20.30
2018-10-07T21:24:40.476Z,21.97
2018-10-07T21:27:09.508Z,22.00
2018-10-07T21:29:38.766Z,19.87
2018-10-07T21:32:07.852Z,20.80
2018-10-07T21:34:36.937Z,21.67
2018-10-07T21:37:06.280Z,26.50
2018-10-07T21:39:35.829Z,26.20
2018-10-07T21:42:04.897Z,28.47
2018-10-07T21:44:33.900Z,24.83
2018-10-07T21:47:03.205Z,24.30
2018-10-07T21:49:32.294Z,26.90
2018-10-07T21:52:01.238Z,31.83
2018-10-07T21:54:30.530Z,24.93
2018-10-07T21:56:59.722Z,31.23
2018-10-07T21:59:28.891Z,25.23
2018-10-07T22:01:58.192Z,26.23
2018-10-07T22:04:27.225Z,31.53
2018-10-07T22:06:56.444Z,27.60
2018-10-07T22:09:25.874Z,30.27
2018-10-07T22:11:54.988Z,31.40
2018-10-07T22:14:24.003Z,34.70
2018-10-07T22:16:53.086Z,33.90
2018-10-07T22:19:22.201Z,33.23
2018-10-07T22:21:52.231Z,37.50
2018-10-07T22:24:21.309Z,37.23
2018-10-07T22:26:50.304Z,41.83
2018-10-07T22:29:19.397Z,37.80
2018-10-07T22:31:48.795Z,39.87
2018-10-07T22:34:18.108Z,38.97
2018-10-07T22:36:47.213Z,42.03
2018-10-07T22:39:16.622Z,42.00
2018-10-07T22:41:45.769Z,39.53
2018-10-07T22:44:14.823Z,45.03
2018-10-07T22:46:44.611Z,45.53
2018-10-07T22:49:13.774Z,48.93
2018-10-07T22:51:42.806Z,51.30
2018-10-07T22:54:12.213Z,55.80
2018-10-07T22:56:41.141Z,50.00
2018-10-07T22:59:10.076Z,54.40
2018-10-07T23:01:39.150Z,55.90
2018-10-07T23:04:08.336Z,53.77
2018-10-07T23:06:37.431Z,56.47
2018-10-07T23:09:10.062Z,48.00
2018-10-07T23:11:38.989Z,53.43
2018-10-07T23:14:08.333Z,50.30
2018-10-07T23:16:37.753Z,54.40
2018-10-07T23:19:06.832Z,51.40
2018-10-07T23:21:35.870Z,54.40
2018-10-07T23:24:05.424Z,54.03
2018-10-07T23:26:34.403Z,59.53
2018-10-07T23:29:03.508Z,54.20
2018-10-07T23:31:32.888Z,53.13
2018-10-07T23:34:01.745Z,53.73
2018-10-07T23:36:30.874Z,49.87
2018-10-07T23:39:00.369Z,57.97
2018-10-07T23:41:29.467Z,58.27
2018-10-07T23:43:58.499Z,60.63
2018-10-07T23:46:27.874Z,49.63
2018-10-07T23:48:56.853Z,51.43
2018-10-07T23:51:25.974Z,55.57
2018-10-07T23:53:55.311Z,52.30
2018-10-07T23:56:24.330Z,50.87
2018-10-07T23:58:53.405Z,50.33
